createdAt,value
2022-12-11T00:01:22.042Z,-0.76
2022-12-11T00:04:25.207Z,-0.93
2022-12-11T00:07:27.843Z,-1.00
2022-12-11T00:10:37.548Z,-1.04
2022-12-11T00:13:41.081Z,-1.08
2022-12-11T00:16:44.314Z,-0.96
2022-12-11T00:19:47.428Z,-0.72
2022-12-11T00:22:50.035Z,-0.36
2022-12-11T00:25:54.446Z,-0.05
2022-12-11T00:28:58.256Z,0.12
2022-12-11T00:32:01.152Z,0.22
2022-12-11T00:35:03.951Z,0.31
2022-12-11T00:38:06.563Z,0.40
2022-12-11T00:41:10.766Z,0.45
2022-12-11T00:44:13.448Z,0.47
2022-12-11T00:47:16.018Z,0.52
2022-12-11T00:50:18.888Z,0.57
2022-12-11T00:53:21.522Z,0.59
2022-12-11T00:56:25.641Z,0.67
2022-12-11T00:59:29.362Z,0.80
2022-12-11T01:02:32.058Z,0.89
2022-12-11T01:05:35.240Z,0.95
2022-12-11T01:08:38.831Z,0.98
2022-12-11T01:11:43.485Z,1.04
2022-12-11T01:14:46.198Z,1.05
2022-12-11T01:17:48.846Z,1.10
2022-12-11T01:20:51.535Z,1.11
2022-12-11T01:23:54.289Z,1.16
2022-12-11T01:26:58.335Z,1.18
2022-12-11T01:30:01.018Z,1.17
2022-12-11T01:33:03.853Z,1.23
2022-12-11T01:36:09.407Z,1.16
2022-12-11T01:39:12.171Z,1.07
2022-12-11T01:42:19.051Z,1.08
2022-12-11T01:45:28.788Z,1.12
2022-12-11T01:48:32.934Z,1.15
2022-12-11T01:51:41.752Z,1.17
2022-12-11T01:54:44.725Z,1.26
2022-12-11T01:57:50.056Z,1.20
2022-12-11T02:00:52.886Z,1.21
2022-12-11T02:03:57.016Z,1.28
2022-12-11T02:06:59.760Z,1.34
2022-12-11T02:10:02.888Z,1.30
2022-12-11T02:13:12.657Z,1.30
2022-12-11T02:16:19.070Z,1.26
2022-12-11T02:19:36.317Z,1.22
2022-12-11T02:22:55.731Z,1.24
2022-12-11T02:26:06.200Z,1.33
2022-12-11T02:29:13.234Z,1.32
2022-12-11T02:32:18.241Z,1.35
2022-12-11T02:35:23.480Z,1.34
2022-12-11T02:38:29.331Z,1.30
2022-12-11T02:41:33.997Z,1.26
2022-12-11T02:44:39.504Z,1.20
2022-12-11T02:47:43.339Z,1.25
2022-12-11T02:50:49.016Z,1.38
2022-12-11T02:53:55.861Z,1.38
2022-12-11T02:57:03.042Z,1.44
2022-12-11T03:00:10.224Z,1.33
2022-12-11T03:03:13.340Z,1.38
2022-12-11T03:06:19.339Z,1.46
2022-12-11T03:09:23.264Z,1.33
2022-12-11T03:12:26.672Z,1.16
2022-12-11T03:15:37.002Z,1.10
2022-12-11T03:18:44.189Z,1.03
2022-12-11T03:21:52.579Z,0.94
2022-12-11T03:25:00.055Z,0.97
2022-12-11T03:28:08.828Z,1.06
2022-12-11T03:31:15.895Z,0.99
2022-12-11T03:34:23.868Z,1.08
2022-12-11T03:37:27.690Z,1.01
2022-12-11T03:40:30.307Z,0.90
2022-12-11T03:43:33.917Z,0.94
2022-12-11T03:46:40.561Z,0.76
2022-12-11T03:49:44.823Z,0.89
2022-12-11T03:52:48.016Z,0.94
2022-12-11T03:55:51.272Z,1.05
2022-12-11T03:58:54.239Z,1.03
2022-12-11T04:01:58.830Z,0.92
2022-12-11T04:05:02.009Z,0.78
2022-12-11T04:08:05.150Z,0.64
2022-12-11T04:11:25.872Z,0.71
2022-12-11T04:14:46.883Z,0.72
2022-12-11T04:18:08.835Z,0.65
2022-12-11T04:21:28.882Z,0.51
2022-12-11T04:24:32.030Z,0.42
2022-12-11T04:27:52.104Z,0.45
2022-12-11T04:30:54.830Z,0.67
2022-12-11T04:33:59.273Z,0.82
2022-12-11T04:37:01.912Z,0.95
2022-12-11T04:40:05.929Z,0.93
2022-12-11T04:43:08.625Z,0.90
2022-12-11T04:46:13.568Z,0.84
2022-12-11T04:49:18.070Z,0.87
2022-12-11T04:52:21.110Z,0.83
2022-12-11T04:55:26.051Z,0.72
2022-12-11T04:58:29.121Z,0.84
2022-12-11T05:01:31.865Z,0.88
2022-12-11T05:04:36.527Z,0.77
2022-12-11T05:07:39.466Z,0.84
2022-12-11T05:10:45.808Z,0.86
2022-12-11T05:13:53.200Z,0.86
2022-12-11T05:16:55.874Z,0.93
2022-12-11T05:19:59.908Z,0.91
2022-12-11T05:23:02.667Z,0.87
2022-12-11T05:26:06.959Z,0.74
2022-12-11T05:29:09.661Z,0.50
2022-12-11T05:32:12.434Z,0.28
2022-12-11T05:35:16.359Z,0.10
2022-12-11T05:38:19.364Z,-0.17
2022-12-11T05:41:25.334Z,-0.44
2022-12-11T05:44:28.216Z,-0.71
2022-12-11T05:47:31.957Z,-0.80
2022-12-11T05:50:36.008Z,-1.01
2022-12-11T05:53:40.566Z,-1.18
2022-12-11T05:56:43.401Z,-1.10
2022-12-11T05:59:46.557Z,-1.05
2022-12-11T06:02:49.213Z,-1.15
2022-12-11T06:05:53.293Z,-1.11
2022-12-11T06:08:57.734Z,-1.23
2022-12-11T06:12:00.406Z,-1.20
2022-12-11T06:15:04.612Z,-1.32
2022-12-11T06:18:07.242Z,-1.23
2022-12-11T06:21:15.823Z,-1.11
2022-12-11T06:24:18.461Z,-1.15
2022-12-11T06:27:21.079Z,-1.24
2022-12-11T06:30:37.631Z,-1.27
2022-12-11T06:33:42.415Z,-1.38
2022-12-11T06:36:46.444Z,-1.43
2022-12-11T06:39:49.181Z,-1.41
2022-12-11T06:42:51.773Z,-1.38
2022-12-11T06:45:59.178Z,-1.32
2022-12-11T06:49:04.892Z,-1.22
2022-12-11T06:52:13.662Z,-1.21
2022-12-11T06:55:19.463Z,-1.17
2022-12-11T06:58:22.448Z,-1.21
2022-12-11T07:01:27.242Z,-1.12
2022-12-11T07:04:31.676Z,-0.94
2022-12-11T07:07:36.597Z,-0.79
2022-12-11T07:10:39.327Z,-0.73
2022-12-11T07:13:43.067Z,-0.75
2022-12-11T07:16:45.739Z,-0.79
2022-12-11T07:19:48.392Z,-0.78
2022-12-11T07:22:52.568Z,-0.79
2022-12-11T07:25:55.377Z,-0.53
2022-12-11T07:28:58.667Z,-0.27
2022-12-11T07:32:01.408Z,-0.04
2022-12-11T07:35:04.509Z,0.12
2022-12-11T07:38:09.423Z,0.15
2022-12-11T07:41:14.579Z,0.18
2022-12-11T07:44:17.836Z,0.26
2022-12-11T07:47:20.379Z,0.43
2022-12-11T07:50:22.971Z,0.58
2022-12-11T07:53:27.006Z,0.70
2022-12-11T07:56:30.382Z,0.91
2022-12-11T07:59:33.207Z,1.11
2022-12-11T08:02:37.531Z,1.23
2022-12-11T08:05:40.502Z,1.41
2022-12-11T08:08:45.204Z,1.58
2022-12-11T08:11:49.650Z,1.74
2022-12-11T08:14:52.309Z,1.84
2022-12-11T08:17:55.576Z,1.96
2022-12-11T08:20:58.378Z,2.30
2022-12-11T08:24:02.871Z,2.56
2022-12-11T08:27:05.519Z,2.78
2022-12-11T08:30:09.446Z,2.82
2022-12-11T08:33:11.995Z,2.68
2022-12-11T08:36:16.463Z,2.36
2022-12-11T08:39:20.357Z,2.09
2022-12-11T08:42:23.145Z,1.97
2022-12-11T08:45:27.084Z,1.97
2022-12-11T08:48:29.821Z,2.09
2022-12-11T08:51:32.718Z,2.13
2022-12-11T08:54:37.989Z,2.09
2022-12-11T08:57:40.741Z,1.86
2022-12-11T09:00:44.176Z,1.88
2022-12-11T09:03:47.137Z,1.97
2022-12-11T09:06:50.054Z,1.99
2022-12-11T09:09:55.985Z,2.17
2022-12-11T09:12:58.908Z,2.36
2022-12-11T09:16:01.886Z,2.39
2022-12-11T09:19:04.960Z,2.52
2022-12-11T09:22:10.100Z,2.53
2022-12-11T09:25:14.945Z,2.75
2022-12-11T09:28:17.694Z,2.84
2022-12-11T09:31:24.272Z,3.01
2022-12-11T09:34:29.448Z,3.11
2022-12-11T09:37:34.165Z,3.32
2022-12-11T09:40:43.438Z,3.57
2022-12-11T09:43:49.705Z,3.78
2022-12-11T09:46:53.221Z,3.99
2022-12-11T09:50:02.575Z,4.17
2022-12-11T09:53:09.665Z,4.30
2022-12-11T09:56:18.382Z,4.55
2022-12-11T09:59:25.139Z,4.46
2022-12-11T10:02:35.003Z,4.27
2022-12-11T10:05:45.700Z,4.21
2022-12-11T10:08:58.645Z,4.11
2022-12-11T10:12:14.793Z,3.96
2022-12-11T10:15:25.412Z,4.02
2022-12-11T10:18:29.503Z,3.83
2022-12-11T10:21:39.452Z,3.94
2022-12-11T10:28:14.548Z,3.93
2022-12-11T10:31:19.424Z,3.91
2022-12-11T10:34:32.460Z,3.91
2022-12-11T10:37:35.229Z,3.84
2022-12-11T10:40:39.251Z,4.08
2022-12-11T10:43:46.047Z,4.36
2022-12-11T10:47:02.370Z,4.54
2022-12-11T10:50:05.825Z,4.29
2022-12-11T10:53:21.458Z,4.20
2022-12-11T10:56:29.076Z,3.99
2022-12-11T10:59:35.853Z,4.07
2022-12-11T11:02:40.438Z,4.01
2022-12-11T11:05:49.380Z,4.08
2022-12-11T11:08:55.111Z,4.07
2022-12-11T11:12:00.825Z,4.21
2022-12-11T11:15:12.318Z,4.22
2022-12-11T11:18:23.037Z,4.29
2022-12-11T11:21:28.495Z,4.38
2022-12-11T11:24:35.474Z,4.27
2022-12-11T11:27:49.344Z,4.51
2022-12-11T11:31:02.576Z,4.63
2022-12-11T11:34:08.334Z,4.58
2022-12-11T11:37:24.878Z,4.54
2022-12-11T11:40:30.512Z,4.36
2022-12-11T11:43:39.159Z,4.56
2022-12-11T11:46:46.964Z,5.04
2022-12-11T11:49:56.863Z,4.87
2022-12-11T11:53:05.563Z,4.71
2022-12-11T11:56:23.594Z,4.83
2022-12-11T11:59:31.224Z,5.01
2022-12-11T12:02:35.582Z,4.86
2022-12-11T12:05:44.485Z,5.02
2022-12-11T12:08:54.945Z,5.01
2022-12-11T12:12:11.029Z,4.52
2022-12-11T12:15:21.986Z,4.65
2022-12-11T12:18:33.167Z,4.56
2022-12-11T12:21:39.340Z,4.46
2022-12-11T12:24:48.436Z,4.20
2022-12-11T12:27:58.116Z,4.15
2022-12-11T12:31:13.160Z,4.04
2022-12-11T12:34:27.502Z,3.98
2022-12-11T12:37:47.541Z,3.91
2022-12-11T12:40:57.952Z,3.80
2022-12-11T12:44:08.592Z,3.89
2022-12-11T12:47:14.307Z,4.03
2022-12-11T12:50:20.850Z,4.10
2022-12-11T12:53:26.756Z,4.41
2022-12-11T12:56:33.099Z,4.39
2022-12-11T12:59:35.830Z,4.34
2022-12-11T13:02:39.403Z,4.39
2022-12-11T13:05:45.334Z,6.23
2022-12-11T13:08:49.891Z,8.92
2022-12-11T13:11:57.867Z,10.95
2022-12-11T13:15:01.304Z,11.49
2022-12-11T13:18:06.456Z,10.62
2022-12-11T13:21:29.656Z,8.19
2022-12-11T13:24:34.180Z,6.07
2022-12-11T13:27:42.768Z,4.68
2022-12-11T13:30:45.916Z,3.88
2022-12-11T13:33:50.511Z,3.47
2022-12-11T13:36:55.758Z,3.26
2022-12-11T13:39:59.226Z,3.10
2022-12-11T13:43:04.013Z,3.08
2022-12-11T13:46:09.176Z,3.06
2022-12-11T13:49:22.266Z,2.97
2022-12-11T13:52:27.785Z,2.96
2022-12-11T13:55:34.081Z,2.71
2022-12-11T13:58:39.820Z,2.56
2022-12-11T14:01:42.589Z,2.48
2022-12-11T14:04:45.754Z,2.54
2022-12-11T14:07:51.153Z,2.36
2022-12-11T14:10:55.679Z,2.13
2022-12-11T14:14:00.154Z,1.87
2022-12-11T14:17:03.860Z,1.58
2022-12-11T14:20:08.472Z,1.40
2022-12-11T14:23:19.316Z,1.31
2022-12-11T14:26:23.978Z,1.08
2022-12-11T14:29:33.424Z,1.00
2022-12-11T14:32:38.189Z,1.11
2022-12-11T14:35:44.000Z,1.04
2022-12-11T14:38:50.708Z,1.01
2022-12-11T14:41:59.427Z,0.83
2022-12-11T14:45:04.894Z,0.63
2022-12-11T14:48:11.503Z,0.66
2022-12-11T14:51:17.079Z,0.65
2022-12-11T14:54:29.810Z,0.75
2022-12-11T14:57:34.459Z,0.85
2022-12-11T15:00:38.319Z,1.04
2022-12-11T15:03:43.260Z,1.17
2022-12-11T15:06:47.631Z,1.24
2022-12-11T15:09:52.794Z,1.27
2022-12-11T15:12:55.988Z,1.14
2022-12-11T15:15:59.823Z,0.96
2022-12-11T15:19:02.450Z,0.74
2022-12-11T15:22:07.110Z,0.58
2022-12-11T15:25:20.688Z,0.61
2022-12-11T15:28:27.872Z,0.58
2022-12-11T15:31:33.312Z,0.63
2022-12-11T15:34:43.081Z,0.62
2022-12-11T15:37:53.587Z,0.62
2022-12-11T15:40:58.621Z,0.72
2022-12-11T15:44:02.855Z,0.88
2022-12-11T15:47:13.353Z,1.08
2022-12-11T15:50:18.454Z,1.22
2022-12-11T15:53:21.120Z,1.23
2022-12-11T15:56:27.190Z,1.29
2022-12-11T15:59:30.119Z,1.50
2022-12-11T16:02:35.076Z,1.57
2022-12-11T16:05:37.917Z,1.53
2022-12-11T16:08:40.815Z,1.48
2022-12-11T16:11:45.066Z,1.54
2022-12-11T16:14:48.672Z,1.43
2022-12-11T16:17:51.763Z,1.32
2022-12-11T16:20:54.692Z,1.21
2022-12-11T16:23:58.757Z,1.12
2022-12-11T16:27:03.822Z,1.08
2022-12-11T16:30:07.761Z,0.95
2022-12-11T16:33:12.803Z,0.81
2022-12-11T16:36:18.262Z,0.78
2022-12-11T16:39:21.654Z,0.67
2022-12-11T16:42:26.665Z,0.61
2022-12-11T16:45:29.939Z,0.63
2022-12-11T16:48:32.782Z,0.59
2022-12-11T16:51:36.033Z,0.60
2022-12-11T16:54:38.803Z,0.56
2022-12-11T16:57:42.892Z,0.52
2022-12-11T17:00:45.745Z,0.48
2022-12-11T17:03:48.732Z,0.42
2022-12-11T17:06:51.477Z,0.35
2022-12-11T17:09:54.246Z,0.27
2022-12-11T17:12:58.409Z,0.19
2022-12-11T17:16:01.705Z,0.29
2022-12-11T17:19:07.332Z,0.36
2022-12-11T17:22:10.739Z,0.35
2022-12-11T17:25:15.224Z,0.38
2022-12-11T17:28:20.325Z,0.36
2022-12-11T17:31:23.569Z,0.39
2022-12-11T17:34:26.214Z,0.36
2022-12-11T17:37:29.388Z,0.28
2022-12-11T17:40:32.281Z,0.12
2022-12-11T17:43:36.543Z,-0.07
2022-12-11T17:46:39.869Z,-0.08
2022-12-11T17:49:42.897Z,0.19
2022-12-11T17:52:46.038Z,0.40
2022-12-11T17:55:49.984Z,0.65
2022-12-11T17:58:54.283Z,0.86
2022-12-11T18:01:57.715Z,1.03
2022-12-11T18:05:01.088Z,1.17
2022-12-11T18:08:03.807Z,1.18
2022-12-11T18:11:07.903Z,1.21
2022-12-11T18:14:16.863Z,1.22
2022-12-11T18:17:20.839Z,1.04
2022-12-11T18:20:23.830Z,1.00
2022-12-11T18:23:27.015Z,0.89
2022-12-11T18:26:29.958Z,0.90
2022-12-11T18:29:34.009Z,0.80
2022-12-11T18:32:36.786Z,0.52
2022-12-11T18:35:39.689Z,0.33
2022-12-11T18:38:43.309Z,0.16
2022-12-11T18:41:58.374Z,-0.10
2022-12-11T18:45:11.601Z,-0.40
2022-12-11T18:48:15.253Z,-0.56
2022-12-11T18:51:22.749Z,-0.70
2022-12-11T18:54:25.532Z,-0.84
2022-12-11T18:57:29.306Z,-0.91
2022-12-11T19:00:34.341Z,-0.92
2022-12-11T19:03:37.475Z,-1.01
2022-12-11T19:06:40.122Z,-1.06
2022-12-11T19:09:47.831Z,-1.10
2022-12-11T19:12:50.976Z,-1.19
2022-12-11T19:15:55.205Z,-1.07
2022-12-11T19:18:59.167Z,-0.86
2022-12-11T19:22:01.831Z,-0.71
2022-12-11T19:25:06.459Z,-0.52
2022-12-11T19:28:09.136Z,-0.39
2022-12-11T19:31:15.975Z,-0.45
2022-12-11T19:34:19.480Z,-0.72
2022-12-11T19:37:22.596Z,-0.96
2022-12-11T19:40:26.667Z,-1.04
2022-12-11T19:43:29.467Z,-1.22
2022-12-11T19:46:33.650Z,-1.36
2022-12-11T19:49:36.497Z,-1.47
2022-12-11T19:52:45.838Z,-1.72
2022-12-11T19:55:50.972Z,-1.74
2022-12-11T19:58:53.696Z,-1.70
2022-12-11T20:01:57.824Z,-1.69
2022-12-11T20:05:00.526Z,-1.70
2022-12-11T20:08:35.230Z,-1.29
2022-12-11T20:11:27.741Z,-0.84
2022-12-11T20:14:31.158Z,-0.61
2022-12-11T20:17:36.841Z,-0.38
2022-12-11T20:20:39.915Z,-0.17
2022-12-11T20:23:43.110Z,-0.09
2022-12-11T20:26:47.088Z,0.02
2022-12-11T20:29:50.248Z,0.16
2022-12-11T20:32:55.328Z,0.23
2022-12-11T20:35:58.108Z,0.12
2022-12-11T20:39:01.320Z,0.17
2022-12-11T20:42:05.002Z,0.27
2022-12-11T20:45:09.656Z,0.34
2022-12-11T20:48:15.166Z,0.43
2022-12-11T20:51:25.777Z,0.54
2022-12-11T20:54:29.624Z,0.57
2022-12-11T20:57:32.568Z,0.57
2022-12-11T21:00:37.704Z,0.60
2022-12-11T21:03:42.728Z,0.65
2022-12-11T21:06:45.675Z,0.69
2022-12-11T21:09:49.069Z,0.70
2022-12-11T21:12:51.669Z,0.77
2022-12-11T21:15:56.725Z,0.81
2022-12-11T21:19:02.022Z,0.88
2022-12-11T21:22:05.547Z,0.92
2022-12-11T21:25:08.866Z,0.93
2022-12-11T21:28:12.002Z,0.93
2022-12-11T21:31:16.583Z,0.82
2022-12-11T21:34:25.309Z,0.80
2022-12-11T21:37:30.005Z,0.78
2022-12-11T21:40:33.985Z,0.80
2022-12-11T21:43:40.026Z,0.85
2022-12-11T21:46:51.204Z,0.86
2022-12-11T21:49:55.381Z,0.84
2022-12-11T21:52:59.622Z,0.93
2022-12-11T21:56:06.561Z,0.98
2022-12-11T21:59:09.336Z,0.95
2022-12-11T22:02:12.880Z,1.01
2022-12-11T22:05:17.401Z,1.00
2022-12-11T22:08:20.118Z,0.92
2022-12-11T22:11:26.206Z,1.05
2022-12-11T22:14:30.772Z,1.01
2022-12-11T22:17:34.476Z,0.91
2022-12-11T22:20:38.499Z,0.89
2022-12-11T22:23:42.411Z,0.88
2022-12-11T22:26:49.766Z,0.96
2022-12-11T22:29:52.769Z,0.76
2022-12-11T22:32:55.511Z,0.81
2022-12-11T22:36:00.893Z,0.88
2022-12-11T22:39:05.426Z,0.89
2022-12-11T22:42:08.211Z,0.57
2022-12-11T22:45:12.519Z,0.66
2022-12-11T22:48:15.626Z,0.59
2022-12-11T22:51:20.578Z,0.66
2022-12-11T22:54:23.108Z,0.66
2022-12-11T22:57:25.778Z,0.67
2022-12-11T23:00:28.421Z,0.75
2022-12-11T23:03:31.177Z,0.76
2022-12-11T23:06:35.642Z,0.69
2022-12-11T23:09:38.455Z,0.61
2022-12-11T23:12:41.148Z,0.74
2022-12-11T23:15:44.243Z,0.82
2022-12-11T23:18:47.886Z,0.74
2022-12-11T23:21:52.020Z,0.71
2022-12-11T23:24:54.608Z,0.74
2022-12-11T23:27:57.447Z,0.68
2022-12-11T23:31:00.482Z,0.79
2022-12-11T23:34:03.717Z,0.83
2022-12-11T23:37:07.767Z,0.76
2022-12-11T23:40:11.711Z,0.81
2022-12-11T23:43:14.167Z,0.72
2022-12-11T23:46:19.122Z,0.63
2022-12-11T23:49:22.015Z,0.60
2022-12-11T23:52:26.636Z,0.44
2022-12-11T23:55:30.881Z,0.36
2022-12-11T23:58:37.489Z,0.26
